createdAt,value
2022-09-30T00:01:55.285Z,99916.22
2022-09-30T00:04:26.031Z,99915.38
2022-09-30T00:06:56.505Z,99915.06
2022-09-30T00:09:25.422Z,99906.63
2022-09-30T00:11:54.096Z,99900.81
2022-09-30T00:14:24.927Z,99903.84
2022-09-30T00:16:53.884Z,99900.78
2022-09-30T00:19:22.598Z,99914.47
2022-09-30T00:21:51.449Z,99915.31
2022-09-30T00:24:21.423Z,99918.53
2022-09-30T00:26:49.998Z,99917.47
2022-09-30T00:29:18.761Z,99915.63
2022-09-30T00:31:47.360Z,99910.63
2022-09-30T00:34:16.024Z,99920.22
2022-09-30T00:36:48.286Z,99919.47
2022-09-30T00:39:20.071Z,99932.66
2022-09-30T00:41:53.395Z,99926.75
2022-09-30T00:44:51.689Z,99922.38
2022-09-30T00:47:57.250Z,99911.94
2022-09-30T00:50:39.012Z,99920.94
2022-09-30T00:53:17.327Z,99914.09
2022-09-30T00:55:58.846Z,99921.69
2022-09-30T00:58:37.962Z,99918.19
2022-09-30T01:01:07.405Z,99914.09
2022-09-30T01:03:42.042Z,99912.28
2022-09-30T01:06:12.251Z,99917.50
2022-09-30T01:08:41.705Z,99914.88
2022-09-30T01:11:10.542Z,99914.44
2022-09-30T01:13:42.801Z,99917.03
2022-09-30T01:21:18.019Z,99917.31
2022-09-30T01:24:18.464Z,99916.41
2022-09-30T01:27:38.941Z,99914.56
2022-09-30T01:30:16.201Z,99924.28
2022-09-30T01:33:28.860Z,99926.97
2022-09-30T01:36:21.294Z,99933.88
2022-09-30T01:39:04.351Z,99927.91
2022-09-30T01:41:46.841Z,99934.59
2022-09-30T01:44:29.694Z,99936.56
2022-09-30T01:47:09.084Z,99934.81
2022-09-30T01:49:47.998Z,99943.38
2022-09-30T01:52:25.950Z,99938.16
2022-09-30T01:55:02.023Z,99932.06
2022-09-30T01:57:43.571Z,99938.78
2022-09-30T02:00:15.446Z,99948.16
2022-09-30T02:02:52.162Z,99949.28
2022-09-30T02:05:32.055Z,99943.06
2022-09-30T02:08:08.844Z,99951.81
2022-09-30T02:10:45.667Z,99948.69
2022-09-30T02:13:22.174Z,99963.91
2022-09-30T02:15:57.420Z,99970.22
2022-09-30T02:18:37.064Z,99960.84
2022-09-30T02:21:12.409Z,99970.25
2022-09-30T02:23:46.931Z,99981.06
2022-09-30T02:26:23.331Z,99977.31
2022-09-30T02:29:04.377Z,99986.41
2022-09-30T02:31:38.485Z,99984.06
2022-09-30T02:34:15.588Z,99987.47
2022-09-30T02:36:56.188Z,99985.94
2022-09-30T02:39:36.039Z,99988.00
2022-09-30T02:42:15.525Z,99988.94
2022-09-30T02:44:44.283Z,99990.78
2022-09-30T02:47:23.021Z,99991.59
2022-09-30T02:50:01.546Z,99992.75
2022-09-30T02:52:49.185Z,100005.69
2022-09-30T02:55:27.671Z,100008.31
2022-09-30T02:58:05.513Z,99998.41
2022-09-30T03:00:35.346Z,99995.75
2022-09-30T03:03:13.493Z,99993.06
2022-09-30T03:05:42.342Z,99989.56
2022-09-30T03:08:13.035Z,100003.09
2022-09-30T03:10:42.541Z,99997.25
2022-09-30T03:13:27.077Z,99988.25
2022-09-30T03:16:16.939Z,99987.31
2022-09-30T03:19:10.971Z,99990.72
2022-09-30T03:22:05.589Z,99996.25
2022-09-30T03:24:57.981Z,100022.44
2022-09-30T03:27:37.351Z,100022.50
2022-09-30T03:30:10.030Z,100011.69
2022-09-30T03:33:00.248Z,100002.41
2022-09-30T03:35:37.553Z,100011.78
2022-09-30T03:38:16.415Z,100015.91
2022-09-30T03:41:00.244Z,100016.66
2022-09-30T03:48:06.962Z,100007.13
2022-09-30T03:50:38.343Z,100010.84
2022-09-30T03:53:12.632Z,100011.28
2022-09-30T03:55:53.061Z,100016.69
2022-09-30T03:58:24.350Z,100023.66
2022-09-30T04:00:57.181Z,100007.91
2022-09-30T04:03:27.901Z,100018.38
2022-09-30T04:05:56.479Z,100015.84
2022-09-30T04:08:25.043Z,100021.38
2022-09-30T04:10:55.124Z,100026.44
2022-09-30T04:13:23.757Z,100030.75
2022-09-30T04:15:55.786Z,100035.06
2022-09-30T04:18:24.862Z,100046.38
2022-09-30T04:20:53.798Z,100055.31
2022-09-30T04:23:22.450Z,100051.84
2022-09-30T04:25:55.408Z,100057.75
2022-09-30T04:28:24.483Z,100048.28
2022-09-30T04:30:53.270Z,100061.91
2022-09-30T04:33:21.800Z,100060.91
2022-09-30T04:35:50.298Z,100065.44
2022-09-30T04:38:19.395Z,100072.31
2022-09-30T04:45:21.738Z,100072.31
2022-09-30T04:53:14.999Z,100073.66
2022-09-30T04:55:43.703Z,100078.63
2022-09-30T04:58:13.637Z,100083.69
2022-09-30T05:00:43.790Z,100086.44
2022-09-30T05:03:12.354Z,100095.81
2022-09-30T05:05:45.117Z,100106.50
2022-09-30T05:08:14.043Z,100102.38
2022-09-30T05:10:42.769Z,100097.03
2022-09-30T05:13:11.474Z,100114.88
2022-09-30T05:15:40.011Z,100118.06
2022-09-30T05:18:10.132Z,100109.19
2022-09-30T05:20:38.662Z,100103.63
2022-09-30T05:23:07.271Z,100100.59
2022-09-30T05:25:36.847Z,100104.88
2022-09-30T05:28:05.424Z,100094.19
2022-09-30T05:30:33.970Z,100088.81
2022-09-30T05:33:02.806Z,100095.63
2022-09-30T05:35:33.062Z,100099.69
2022-09-30T05:38:03.355Z,100109.84
2022-09-30T05:40:32.756Z,100109.84
2022-09-30T05:43:01.830Z,100103.03
2022-09-30T05:50:04.161Z,100110.38
2022-09-30T05:52:34.196Z,100124.13
2022-09-30T05:55:03.587Z,100121.50
2022-09-30T05:57:32.419Z,100123.13
2022-09-30T06:00:01.803Z,100126.59
2022-09-30T06:02:41.601Z,100129.41
2022-09-30T06:05:11.966Z,100140.75
2022-09-30T06:07:41.957Z,100137.00
2022-09-30T06:10:12.482Z,100137.69
2022-09-30T06:12:41.453Z,100143.47
2022-09-30T06:15:11.266Z,100128.09
2022-09-30T06:17:42.517Z,100144.16
2022-09-30T06:20:11.949Z,100143.06
2022-09-30T06:22:43.423Z,100147.53
2022-09-30T06:25:12.909Z,100158.50
2022-09-30T06:27:45.693Z,100159.19
2022-09-30T06:30:14.970Z,100166.03
2022-09-30T06:32:44.245Z,100152.19
2022-09-30T06:35:13.016Z,100157.06
2022-09-30T06:37:42.911Z,100158.84
2022-09-30T06:40:11.914Z,100149.41
2022-09-30T06:47:23.940Z,100158.41
2022-09-30T06:49:58.638Z,100156.66
2022-09-30T06:52:28.184Z,100167.00
2022-09-30T06:54:58.052Z,100175.13
2022-09-30T06:57:27.943Z,100162.44
2022-09-30T06:59:56.846Z,100166.06
2022-09-30T07:02:25.525Z,100171.63
2022-09-30T07:04:54.236Z,100175.59
2022-09-30T07:07:23.026Z,100173.75
2022-09-30T07:09:52.921Z,100180.22
2022-09-30T07:12:24.724Z,100182.84
2022-09-30T07:14:53.571Z,100176.78
2022-09-30T07:17:22.105Z,100152.75
2022-09-30T07:19:52.318Z,100175.75
2022-09-30T07:26:53.632Z,100184.59
2022-09-30T07:29:23.887Z,100178.38
2022-09-30T07:31:52.556Z,100191.13
2022-09-30T07:34:21.262Z,100191.19
2022-09-30T07:36:50.015Z,100192.91
2022-09-30T07:39:18.741Z,100196.63
2022-09-30T07:41:47.443Z,100197.38
2022-09-30T07:44:16.672Z,100195.56
2022-09-30T07:46:47.336Z,100202.50
2022-09-30T07:49:25.656Z,100210.72
2022-09-30T07:51:57.474Z,100218.03
2022-09-30T07:59:01.145Z,100210.41
2022-09-30T08:06:09.471Z,100219.91
2022-09-30T08:08:38.964Z,100238.38
2022-09-30T08:15:41.281Z,100228.22
2022-09-30T08:18:10.028Z,100217.97
2022-09-30T08:20:38.564Z,100227.59
2022-09-30T08:23:08.691Z,100228.41
2022-09-30T08:25:37.542Z,100234.34
2022-09-30T08:32:38.115Z,100246.47
2022-09-30T08:35:08.171Z,100236.19
2022-09-30T08:42:38.395Z,100241.56
2022-09-30T08:45:26.063Z,100246.63
2022-09-30T08:48:09.979Z,100245.50
2022-09-30T08:50:52.310Z,100256.84
2022-09-30T08:53:30.563Z,100254.94
2022-09-30T08:56:02.783Z,100252.13
2022-09-30T08:58:38.256Z,100246.84
2022-09-30T09:01:18.839Z,100256.44
2022-09-30T09:03:47.966Z,100256.94
2022-09-30T09:06:29.868Z,100263.06
2022-09-30T09:09:32.814Z,100267.88
2022-09-30T09:12:17.014Z,100266.81
2022-09-30T09:19:25.259Z,100276.41
2022-09-30T09:21:59.883Z,100275.47
2022-09-30T09:24:31.584Z,100276.91
2022-09-30T09:27:00.499Z,100271.13
2022-09-30T09:29:43.936Z,100273.34
2022-09-30T09:32:17.554Z,100274.41
2022-09-30T09:34:54.649Z,100265.78
2022-09-30T09:37:54.924Z,100261.66
2022-09-30T09:40:34.969Z,100263.41
2022-09-30T09:43:19.983Z,100261.59
2022-09-30T09:46:01.789Z,100258.59
2022-09-30T09:48:30.849Z,100264.25
2022-09-30T09:51:13.263Z,100263.38
2022-09-30T09:53:49.757Z,100256.44
2022-09-30T09:56:21.378Z,100266.72
2022-09-30T09:59:09.011Z,100267.59
2022-09-30T10:01:40.901Z,100257.19
2022-09-30T10:08:57.219Z,100243.88
2022-09-30T10:11:29.319Z,100242.81
2022-09-30T10:14:00.867Z,100240.44
2022-09-30T10:16:35.592Z,100247.28
2022-09-30T10:19:18.180Z,100246.69
2022-09-30T10:21:47.250Z,100254.81
2022-09-30T10:24:31.827Z,100247.84
2022-09-30T10:27:00.658Z,100258.63
2022-09-30T10:29:32.322Z,100249.16
2022-09-30T10:32:42.223Z,100258.91
2022-09-30T10:35:24.473Z,100260.72
2022-09-30T10:37:55.826Z,100271.38
2022-09-30T10:40:30.231Z,100258.72
2022-09-30T10:42:59.717Z,100267.50
2022-09-30T10:45:37.128Z,100258.09
2022-09-30T10:48:17.064Z,100264.47
2022-09-30T10:50:53.590Z,100268.13
2022-09-30T10:53:26.363Z,100274.97
2022-09-30T11:00:31.744Z,100268.50
2022-09-30T11:03:09.018Z,100264.06
2022-09-30T11:05:42.083Z,100259.16
2022-09-30T11:08:20.914Z,100266.81
2022-09-30T11:11:00.311Z,100264.06
2022-09-30T11:13:41.035Z,100270.16
2022-09-30T11:16:22.336Z,100273.53
2022-09-30T11:19:01.878Z,100270.53
2022-09-30T11:21:41.705Z,100273.06
2022-09-30T11:24:26.920Z,100267.50
2022-09-30T11:27:09.070Z,100267.28
2022-09-30T11:29:56.159Z,100268.47
2022-09-30T11:32:46.940Z,100263.56
2022-09-30T11:35:45.503Z,100266.69
2022-09-30T11:38:54.806Z,100269.22
2022-09-30T11:41:32.782Z,100257.06
2022-09-30T11:44:20.721Z,100267.50
2022-09-30T11:47:09.617Z,100268.25
2022-09-30T11:50:00.543Z,100260.72
2022-09-30T11:52:40.951Z,100259.00
2022-09-30T11:55:44.753Z,100261.19
2022-09-30T12:02:49.735Z,100263.81
2022-09-30T12:05:25.937Z,100270.03
2022-09-30T12:08:03.683Z,100263.34
2022-09-30T12:10:39.943Z,100280.34
2022-09-30T12:13:25.064Z,100262.38
2022-09-30T12:15:57.495Z,100265.72
2022-09-30T12:18:35.428Z,100262.25
2022-09-30T12:21:21.139Z,100262.50
2022-09-30T12:23:58.858Z,100258.28
2022-09-30T12:26:28.180Z,100263.13
2022-09-30T12:29:22.806Z,100261.66
2022-09-30T12:32:16.434Z,100254.81
2022-09-30T12:35:04.299Z,100253.00
2022-09-30T12:37:55.440Z,100258.44
2022-09-30T12:40:57.571Z,100261.31
2022-09-30T12:44:19.664Z,100255.56
2022-09-30T12:47:10.378Z,100256.69
2022-09-30T12:49:43.412Z,100253.94
2022-09-30T12:52:18.374Z,100248.69
2022-09-30T12:54:54.751Z,100251.41
2022-09-30T12:57:31.998Z,100261.66
2022-09-30T13:04:39.291Z,100244.59
2022-09-30T13:07:22.093Z,100229.28
2022-09-30T13:10:26.624Z,100240.88
2022-09-30T13:13:26.400Z,100249.41
2022-09-30T13:16:03.158Z,100247.72
2022-09-30T13:23:04.209Z,100242.78
2022-09-30T13:25:55.259Z,100246.66
2022-09-30T13:28:38.964Z,100246.19
2022-09-30T13:31:20.612Z,100240.78
2022-09-30T13:34:11.695Z,100249.06
2022-09-30T13:36:42.970Z,100240.78
2022-09-30T13:39:26.728Z,100244.75
2022-09-30T13:42:14.028Z,100240.78
2022-09-30T13:45:03.303Z,100235.97
2022-09-30T13:47:41.359Z,100242.72
2022-09-30T13:50:19.398Z,100247.00
2022-09-30T13:52:54.535Z,100238.03
2022-09-30T13:55:30.184Z,100237.78
2022-09-30T14:03:26.670Z,100234.78
2022-09-30T14:06:17.660Z,100241.13
2022-09-30T14:09:16.695Z,100237.66
2022-09-30T14:12:13.589Z,100243.53
2022-09-30T14:15:18.231Z,100250.00
2022-09-30T14:18:17.810Z,100248.34
2022-09-30T14:21:13.466Z,100240.91
2022-09-30T14:23:42.904Z,100252.50
2022-09-30T14:26:42.760Z,100251.34
2022-09-30T14:29:19.806Z,100251.91
2022-09-30T14:31:49.664Z,100255.16
2022-09-30T14:34:23.323Z,100261.28
2022-09-30T14:36:54.574Z,100253.25
2022-09-30T14:39:28.227Z,100256.00
2022-09-30T14:42:02.223Z,100267.03
2022-09-30T14:44:36.521Z,100253.00
2022-09-30T14:47:06.642Z,100259.00
2022-09-30T14:49:37.521Z,100259.34
2022-09-30T14:52:06.698Z,100250.47
2022-09-30T14:54:35.524Z,100264.00
2022-09-30T14:57:16.754Z,100262.59
2022-09-30T14:59:45.523Z,100255.13
2022-09-30T15:02:20.330Z,100260.28
2022-09-30T15:09:28.800Z,100262.66
2022-09-30T15:11:59.365Z,100252.59
2022-09-30T15:14:28.003Z,100258.47
2022-09-30T15:17:02.510Z,100258.38
2022-09-30T15:19:43.544Z,100260.88
2022-09-30T15:22:15.343Z,100261.84
2022-09-30T15:24:47.406Z,100262.78
2022-09-30T15:27:22.581Z,100260.41
2022-09-30T15:29:58.602Z,100264.81
2022-09-30T15:32:30.426Z,100251.63
2022-09-30T15:35:05.493Z,100264.19
2022-09-30T15:37:34.939Z,100260.03
2022-09-30T15:40:33.466Z,100259.91
2022-09-30T15:43:06.529Z,100262.66
2022-09-30T15:45:39.585Z,100263.59
2022-09-30T15:48:38.138Z,100269.69
2022-09-30T15:51:27.963Z,100269.53
2022-09-30T15:53:58.107Z,100262.91
2022-09-30T15:56:34.538Z,100261.22
2022-09-30T15:59:07.817Z,100269.47
2022-09-30T16:01:40.195Z,100274.72
2022-09-30T16:08:49.433Z,100281.53
2022-09-30T16:11:26.487Z,100282.78
2022-09-30T16:13:58.093Z,100288.81
2022-09-30T16:16:30.751Z,100285.78
2022-09-30T16:19:02.335Z,100281.88
2022-09-30T16:21:44.279Z,100290.63
2022-09-30T16:24:48.949Z,100289.28
2022-09-30T16:27:31.610Z,100300.25
2022-09-30T16:30:01.973Z,100303.13
2022-09-30T16:32:42.527Z,100309.44
2022-09-30T16:35:19.961Z,100307.88
2022-09-30T16:37:50.019Z,100311.56
2022-09-30T16:40:25.367Z,100316.00
2022-09-30T16:42:55.792Z,100321.69
2022-09-30T16:45:24.802Z,100318.09
2022-09-30T16:47:53.520Z,100317.47
2022-09-30T16:50:39.445Z,100331.38
2022-09-30T16:53:09.812Z,100324.88
2022-09-30T16:55:40.136Z,100330.97
2022-09-30T16:58:13.975Z,100326.97
2022-09-30T17:00:45.467Z,100330.22
2022-09-30T17:03:17.381Z,100323.63
2022-09-30T17:05:53.104Z,100324.44
2022-09-30T17:08:24.284Z,100319.28
2022-09-30T17:10:54.212Z,100319.19
2022-09-30T17:13:23.874Z,100329.25
2022-09-30T17:15:53.592Z,100332.75
2022-09-30T17:18:22.162Z,100338.44
2022-09-30T17:25:22.566Z,100326.88
2022-09-30T17:27:52.746Z,100332.88
2022-09-30T17:30:21.742Z,100330.03
2022-09-30T17:32:50.502Z,100324.44
2022-09-30T17:35:20.129Z,100326.47
2022-09-30T17:37:48.797Z,100337.59
2022-09-30T17:40:50.121Z,100339.63
2022-09-30T17:43:20.345Z,100332.25
2022-09-30T17:54:54.650Z,100341.31
2022-09-30T17:57:23.533Z,100340.13
2022-09-30T18:04:26.083Z,100344.97
2022-09-30T18:06:54.899Z,100346.38
2022-09-30T18:09:24.308Z,100348.47
2022-09-30T18:11:54.527Z,100351.81
2022-09-30T18:14:23.134Z,100351.00
2022-09-30T18:16:51.718Z,100337.09
2022-09-30T18:19:20.510Z,100342.88
2022-09-30T18:21:50.859Z,100343.94
2022-09-30T18:24:39.591Z,100339.50
2022-09-30T18:27:08.399Z,100331.91
2022-09-30T18:29:37.057Z,100335.22
2022-09-30T18:32:06.480Z,100335.94
2022-09-30T18:34:35.514Z,100337.59
2022-09-30T18:37:06.737Z,100343.72
2022-09-30T18:44:06.644Z,100328.97
2022-09-30T18:46:36.107Z,100343.63
2022-09-30T18:49:05.543Z,100340.00
2022-09-30T18:51:34.667Z,100346.75
2022-09-30T18:54:05.906Z,100351.81
2022-09-30T18:56:34.844Z,100344.56
2022-09-30T18:59:05.689Z,100350.34
2022-09-30T19:01:36.522Z,100335.31
2022-09-30T19:04:05.973Z,100342.34
2022-09-30T19:06:34.946Z,100337.09
2022-09-30T19:09:06.536Z,100335.41
2022-09-30T19:16:07.107Z,100342.97
2022-09-30T19:18:35.879Z,100349.31
2022-09-30T19:21:07.155Z,100341.28
2022-09-30T19:23:35.935Z,100350.34
2022-09-30T19:26:07.253Z,100352.03
2022-09-30T19:28:37.873Z,100342.78
2022-09-30T19:31:12.417Z,100350.66
2022-09-30T19:33:55.533Z,100350.44
2022-09-30T19:36:27.018Z,100339.41
2022-09-30T19:39:09.915Z,100337.94
2022-09-30T19:41:42.139Z,100345.19
2022-09-30T19:44:11.336Z,100348.47
2022-09-30T19:51:16.924Z,100367.50
2022-09-30T19:54:01.728Z,100367.72
2022-09-30T19:56:36.045Z,100371.06
2022-09-30T19:59:06.258Z,100366.66
2022-09-30T20:01:35.622Z,100362.97
2022-09-30T20:04:24.080Z,100356.09
2022-09-30T20:06:53.771Z,100358.63
2022-09-30T20:09:22.335Z,100352.97
2022-09-30T20:11:51.290Z,100336.91
2022-09-30T20:14:38.849Z,100343.31
2022-09-30T20:17:07.730Z,100337.72
2022-09-30T20:19:36.339Z,100347.81
2022-09-30T20:22:05.357Z,100347.59
2022-09-30T20:24:34.281Z,100357.91
2022-09-30T20:27:02.835Z,100366.34
2022-09-30T20:29:32.709Z,100359.53
2022-09-30T20:32:02.302Z,100347.50
2022-09-30T20:34:33.498Z,100335.81
2022-09-30T20:37:04.331Z,100345.94
2022-09-30T20:39:34.582Z,100350.13
2022-09-30T20:46:36.652Z,100353.28
2022-09-30T20:49:05.938Z,100349.16
2022-09-30T20:51:34.923Z,100341.28
2022-09-30T20:54:04.121Z,100334.56
2022-09-30T20:56:50.078Z,100330.78
2022-09-30T20:59:21.512Z,100344.78
2022-09-30T21:01:51.952Z,100343.91
2022-09-30T21:04:21.345Z,100333.41
2022-09-30T21:06:50.132Z,100336.22
2022-09-30T21:09:18.703Z,100330.25
2022-09-30T21:11:47.263Z,100331.09
2022-09-30T21:14:19.411Z,100329.31
2022-09-30T21:16:48.053Z,100325.84
2022-09-30T21:19:18.908Z,100323.75
2022-09-30T21:21:47.442Z,100322.06
2022-09-30T21:24:16.434Z,100331.72
2022-09-30T21:26:45.273Z,100335.94
2022-09-30T21:29:13.883Z,100323.84
2022-09-30T21:36:15.432Z,100321.72
2022-09-30T21:38:44.049Z,100319.09
2022-09-30T21:41:12.686Z,100311.31
2022-09-30T21:43:41.423Z,100315.63
2022-09-30T21:46:16.584Z,100311.09
2022-09-30T21:48:46.584Z,100316.78
2022-09-30T21:51:17.966Z,100325.72
2022-09-30T21:53:46.898Z,100324.56
2022-09-30T21:56:15.416Z,100325.72
2022-09-30T21:58:44.076Z,100312.03
2022-09-30T22:01:12.837Z,100314.47
2022-09-30T22:03:41.464Z,100312.28
2022-09-30T22:06:12.577Z,100328.88
2022-09-30T22:08:42.700Z,100327.72
2022-09-30T22:11:14.766Z,100329.19
2022-09-30T22:13:45.779Z,100318.78
2022-09-30T22:16:16.410Z,100331.22
2022-09-30T22:18:45.168Z,100328.47
2022-09-30T22:21:15.944Z,100330.78
2022-09-30T22:23:48.674Z,100331.09
2022-09-30T22:26:21.215Z,100330.34
2022-09-30T22:28:55.526Z,100336.03
2022-09-30T22:31:27.282Z,100332.00
2022-09-30T22:34:16.858Z,100329.59
2022-09-30T22:37:03.421Z,100322.13
2022-09-30T22:39:34.161Z,100332.63
2022-09-30T22:42:03.796Z,100337.16
2022-09-30T22:44:36.242Z,100333.56
2022-09-30T22:47:06.438Z,100330.09
2022-09-30T22:49:35.297Z,100330.94
2022-09-30T22:52:04.752Z,100336.09
2022-09-30T22:54:36.898Z,100327.56
2022-09-30T22:57:07.923Z,100323.78
2022-09-30T22:59:37.335Z,100337.97
2022-09-30T23:02:06.408Z,100330.19
2022-09-30T23:04:36.223Z,100338.81
2022-09-30T23:07:07.655Z,100338.25
2022-09-30T23:09:37.592Z,100344.25
2022-09-30T23:12:06.320Z,100334.28
2022-09-30T23:14:34.870Z,100336.72
2022-09-30T23:17:03.438Z,100326.94
2022-09-30T23:19:32.310Z,100334.09
2022-09-30T23:22:00.904Z,100329.19
2022-09-30T23:24:31.420Z,100326.53
2022-09-30T23:27:01.688Z,100334.75
2022-09-30T23:29:30.249Z,100333.69
2022-09-30T23:31:58.854Z,100333.34
2022-09-30T23:34:27.647Z,100323.03
2022-09-30T23:36:56.180Z,100319.16
2022-09-30T23:39:24.747Z,100308.53
2022-09-30T23:41:53.512Z,100314.72
2022-09-30T23:44:25.125Z,100312.28
2022-09-30T23:47:11.386Z,100310.72
2022-09-30T23:49:40.270Z,100305.56
2022-09-30T23:52:13.216Z,100311.75
2022-09-30T23:54:43.236Z,100311.34
2022-09-30T23:57:12.912Z,100314.63
2022-09-30T23:59:42.869Z,100300.22
